sensor_id;sensor_type;location;lat;lon;timestamp;temperature;humidity
23114;DHT22;11726;50.122;8.832;2023-04-21T00:02:11;8.20;99.90
23114;DHT22;11726;50.122;8.832;2023-04-21T00:04:41;8.20;99.90
23114;DHT22;11726;50.122;8.832;2023-04-21T00:07:11;8.20;99.90
23114;DHT22;11726;50.122;8.832;2023-04-21T00:09:40;8.20;99.90
23114;DHT22;11726;50.122;8.832;2023-04-21T00:12:07;8.20;99.90
23114;DHT22;11726;50.122;8.832;2023-04-21T00:14:34;8.20;99.90
23114;DHT22;11726;50.122;8.832;2023-04-21T00:17:01;8.30;99.90
23114;DHT22;11726;50.122;8.832;2023-04-21T00:19:28;8.20;99.90
23114;DHT22;11726;50.122;8.832;2023-04-21T00:21:55;8.20;99.90
23114;DHT22;11726;50.122;8.832;2023-04-21T00:24:25;8.20;99.90
23114;DHT22;11726;50.122;8.832;2023-04-21T00:26:52;8.20;99.90
23114;DHT22;11726;50.122;8.832;2023-04-21T00:29:18;8.20;99.90
23114;DHT22;11726;50.122;8.832;2023-04-21T00:31:45;8.20;99.90
23114;DHT22;11726;50.122;8.832;2023-04-21T00:34:13;8.20;99.90
23114;DHT22;11726;50.122;8.832;2023-04-21T00:36:40;8.30;99.90
23114;DHT22;11726;50.122;8.832;2023-04-21T00:39:06;8.20;99.90
23114;DHT22;11726;50.122;8.832;2023-04-21T00:41:33;8.20;99.90
23114;DHT22;11726;50.122;8.832;2023-04-21T00:44:08;8.20;99.90
23114;DHT22;11726;50.122;8.832;2023-04-21T00:46:35;8.10;99.90
23114;DHT22;11726;50.122;8.832;2023-04-21T00:49:04;8.20;99.90
23114;DHT22;11726;50.122;8.832;2023-04-21T00:51:33;8.20;99.90
23114;DHT22;11726;50.122;8.832;2023-04-21T00:54:02;8.10;99.90
23114;DHT22;11726;50.122;8.832;2023-04-21T00:56:31;8.10;99.90
23114;DHT22;11726;50.122;8.832;2023-04-21T00:59:01;8.00;99.90
23114;DHT22;11726;50.122;8.832;2023-04-21T01:01:30;8.00;99.90
23114;DHT22;11726;50.122;8.832;2023-04-21T01:03:58;8.00;99.90
23114;DHT22;11726;50.122;8.832;2023-04-21T01:06:30;7.90;99.90
23114;DHT22;11726;50.122;8.832;2023-04-21T01:09:00;7.90;99.90
23114;DHT22;11726;50.122;8.832;2023-04-21T01:11:29;7.90;99.90
23114;DHT22;11726;50.122;8.832;2023-04-21T01:13:56;7.90;99.90
23114;DHT22;11726;50.122;8.832;2023-04-21T01:16:23;7.90;99.90
23114;DHT22;11726;50.122;8.832;2023-04-21T01:18:50;7.80;99.90
23114;DHT22;11726;50.122;8.832;2023-04-21T01:21:20;7.60;99.90
23114;DHT22;11726;50.122;8.832;2023-04-21T01:23:47;7.70;99.90
23114;DHT22;11726;50.122;8.832;2023-04-21T01:26:17;7.70;99.90
23114;DHT22;11726;50.122;8.832;2023-04-21T01:28:44;7.70;99.90
23114;DHT22;11726;50.122;8.832;2023-04-21T01:31:16;7.70;99.90
23114;DHT22;11726;50.122;8.832;2023-04-21T01:33:44;7.80;99.90
23114;DHT22;11726;50.122;8.832;2023-04-21T01:36:11;7.80;99.90
23114;DHT22;11726;50.122;8.832;2023-04-21T01:38:41;7.60;99.90
23114;DHT22;11726;50.122;8.832;2023-04-21T01:41:08;7.60;99.90
23114;DHT22;11726;50.122;8.832;2023-04-21T01:43:36;7.60;99.90
23114;DHT22;11726;50.122;8.832;2023-04-21T01:46:06;7.60;99.90
23114;DHT22;11726;50.122;8.832;2023-04-21T01:48:33;7.60;99.90
23114;DHT22;11726;50.122;8.832;2023-04-21T01:50:59;7.60;99.90
23114;DHT22;11726;50.122;8.832;2023-04-21T01:53:26;7.60;99.90
23114;DHT22;11726;50.122;8.832;2023-04-21T01:55:53;7.50;99.90
23114;DHT22;11726;50.122;8.832;2023-04-21T01:58:20;7.60;99.90
23114;DHT22;11726;50.122;8.832;2023-04-21T02:00:47;7.50;99.90
23114;DHT22;11726;50.122;8.832;2023-04-21T02:03:14;7.50;99.90
23114;DHT22;11726;50.122;8.832;2023-04-21T02:05:43;7.40;99.90
23114;DHT22;11726;50.122;8.832;2023-04-21T02:08:10;7.50;99.90
23114;DHT22;11726;50.122;8.832;2023-04-21T02:10:37;7.40;99.90
23114;DHT22;11726;50.122;8.832;2023-04-21T02:13:03;7.40;99.90
23114;DHT22;11726;50.122;8.832;2023-04-21T02:15:30;7.40;99.90
23114;DHT22;11726;50.122;8.832;2023-04-21T02:17:57;7.40;99.90
23114;DHT22;11726;50.122;8.832;2023-04-21T02:20:24;7.40;99.90
23114;DHT22;11726;50.122;8.832;2023-04-21T02:22:50;7.40;99.90
23114;DHT22;11726;50.122;8.832;2023-04-21T02:25:17;7.40;99.90
23114;DHT22;11726;50.122;8.832;2023-04-21T02:27:45;7.40;99.90
23114;DHT22;11726;50.122;8.832;2023-04-21T02:30:12;7.40;99.90
23114;DHT22;11726;50.122;8.832;2023-04-21T02:32:39;7.40;99.90
23114;DHT22;11726;50.122;8.832;2023-04-21T02:35:06;7.40;99.90
23114;DHT22;11726;50.122;8.832;2023-04-21T02:37:34;7.30;99.90
23114;DHT22;11726;50.122;8.832;2023-04-21T02:40:01;7.30;99.90
23114;DHT22;11726;50.122;8.832;2023-04-21T02:42:28;7.30;99.90
23114;DHT22;11726;50.122;8.832;2023-04-21T02:44:54;7.30;99.90
23114;DHT22;11726;50.122;8.832;2023-04-21T02:47:21;7.20;99.90
23114;DHT22;11726;50.122;8.832;2023-04-21T02:49:49;7.30;99.90
23114;DHT22;11726;50.122;8.832;2023-04-21T02:52:16;7.30;99.90
23114;DHT22;11726;50.122;8.832;2023-04-21T02:54:42;7.20;99.90
23114;DHT22;11726;50.122;8.832;2023-04-21T02:57:09;7.30;99.90
23114;DHT22;11726;50.122;8.832;2023-04-21T02:59:36;7.40;99.90
23114;DHT22;11726;50.122;8.832;2023-04-21T03:02:02;7.30;99.90
23114;DHT22;11726;50.122;8.832;2023-04-21T03:04:29;7.30;99.90
23114;DHT22;11726;50.122;8.832;2023-04-21T03:06:58;7.30;99.90
23114;DHT22;11726;50.122;8.832;2023-04-21T03:09:24;7.30;99.90
23114;DHT22;11726;50.122;8.832;2023-04-21T03:11:51;7.20;99.90
23114;DHT22;11726;50.122;8.832;2023-04-21T03:14:17;7.30;99.90
23114;DHT22;11726;50.122;8.832;2023-04-21T03:16:44;7.30;99.90
23114;DHT22;11726;50.122;8.832;2023-04-21T03:19:15;7.30;99.90
23114;DHT22;11726;50.122;8.832;2023-04-21T03:21:42;7.40;99.90
23114;DHT22;11726;50.122;8.832;2023-04-21T03:24:10;7.40;99.90
23114;DHT22;11726;50.122;8.832;2023-04-21T03:26:38;7.40;99.90
23114;DHT22;11726;50.122;8.832;2023-04-21T03:29:06;7.40;99.90
23114;DHT22;11726;50.122;8.832;2023-04-21T03:31:32;7.40;99.90
23114;DHT22;11726;50.122;8.832;2023-04-21T03:33:59;7.30;99.90
23114;DHT22;11726;50.122;8.832;2023-04-21T03:36:26;7.30;99.90
23114;DHT22;11726;50.122;8.832;2023-04-21T03:38:52;7.30;99.90
23114;DHT22;11726;50.122;8.832;2023-04-21T03:41:19;7.30;99.90
23114;DHT22;11726;50.122;8.832;2023-04-21T03:43:49;7.40;99.90
23114;DHT22;11726;50.122;8.832;2023-04-21T03:46:20;7.40;99.90
23114;DHT22;11726;50.122;8.832;2023-04-21T03:48:47;7.30;99.90
23114;DHT22;11726;50.122;8.832;2023-04-21T03:51:14;7.30;99.90
23114;DHT22;11726;50.122;8.832;2023-04-21T03:53:41;7.30;99.90
23114;DHT22;11726;50.122;8.832;2023-04-21T03:56:08;7.40;99.90
23114;DHT22;11726;50.122;8.832;2023-04-21T03:58:35;7.30;99.90
23114;DHT22;11726;50.122;8.832;2023-04-21T04:01:04;7.30;99.90
23114;DHT22;11726;50.122;8.832;2023-04-21T04:03:32;7.30;99.90
23114;DHT22;11726;50.122;8.832;2023-04-21T04:05:59;7.30;99.90
23114;DHT22;11726;50.122;8.832;2023-04-21T04:08:26;7.30;99.90
23114;DHT22;11726;50.122;8.832;2023-04-21T04:10:53;7.30;99.90
23114;DHT22;11726;50.122;8.832;2023-04-21T04:13:20;7.30;99.90
23114;DHT22;11726;50.122;8.832;2023-04-21T04:15:48;7.10;99.90
23114;DHT22;11726;50.122;8.832;2023-04-21T04:18:15;7.10;99.90
23114;DHT22;11726;50.122;8.832;2023-04-21T04:20:42;7.10;99.90
23114;DHT22;11726;50.122;8.832;2023-04-21T04:23:09;7.00;99.90
23114;DHT22;11726;50.122;8.832;2023-04-21T04:25:35;6.90;99.90
23114;DHT22;11726;50.122;8.832;2023-04-21T04:28:02;7.00;99.90
23114;DHT22;11726;50.122;8.832;2023-04-21T04:30:30;7.00;99.90
23114;DHT22;11726;50.122;8.832;2023-04-21T04:32:58;7.00;99.90
23114;DHT22;11726;50.122;8.832;2023-04-21T04:35:25;7.10;99.90
23114;DHT22;11726;50.122;8.832;2023-04-21T04:37:52;7.10;99.90
23114;DHT22;11726;50.122;8.832;2023-04-21T04:40:20;7.10;99.90
23114;DHT22;11726;50.122;8.832;2023-04-21T04:42:47;7.10;99.90
23114;DHT22;11726;50.122;8.832;2023-04-21T04:45:14;7.10;99.90
23114;DHT22;11726;50.122;8.832;2023-04-21T04:47:42;7.10;99.90
23114;DHT22;11726;50.122;8.832;2023-04-21T04:50:09;7.10;99.90
23114;DHT22;11726;50.122;8.832;2023-04-21T04:52:36;7.10;99.90
23114;DHT22;11726;50.122;8.832;2023-04-21T04:55:03;7.10;99.90
23114;DHT22;11726;50.122;8.832;2023-04-21T04:57:30;7.20;99.90
23114;DHT22;11726;50.122;8.832;2023-04-21T04:59:57;7.10;99.90
23114;DHT22;11726;50.122;8.832;2023-04-21T05:02:23;7.10;99.90
23114;DHT22;11726;50.122;8.832;2023-04-21T05:04:51;7.30;99.90
23114;DHT22;11726;50.122;8.832;2023-04-21T05:07:18;7.30;99.90
23114;DHT22;11726;50.122;8.832;2023-04-21T05:09:45;7.30;99.90
23114;DHT22;11726;50.122;8.832;2023-04-21T05:12:11;7.10;99.90
23114;DHT22;11726;50.122;8.832;2023-04-21T05:14:38;7.20;99.90
23114;DHT22;11726;50.122;8.832;2023-04-21T05:17:05;7.30;99.90
23114;DHT22;11726;50.122;8.832;2023-04-21T05:19:34;7.30;99.90
23114;DHT22;11726;50.122;8.832;2023-04-21T05:22:02;7.30;99.90
23114;DHT22;11726;50.122;8.832;2023-04-21T05:24:32;7.40;99.90
23114;DHT22;11726;50.122;8.832;2023-04-21T05:26:59;7.40;99.90
23114;DHT22;11726;50.122;8.832;2023-04-21T05:29:31;7.40;99.90
23114;DHT22;11726;50.122;8.832;2023-04-21T05:31:59;7.40;99.90
23114;DHT22;11726;50.122;8.832;2023-04-21T05:34:30;7.50;99.90
23114;DHT22;11726;50.122;8.832;2023-04-21T05:36:56;7.40;99.90
23114;DHT22;11726;50.122;8.832;2023-04-21T05:39:23;7.50;99.90
23114;DHT22;11726;50.122;8.832;2023-04-21T05:41:52;7.60;99.90
23114;DHT22;11726;50.122;8.832;2023-04-21T05:44:18;7.70;99.90
23114;DHT22;11726;50.122;8.832;2023-04-21T05:50:20;7.70;99.90
23114;DHT22;11726;50.122;8.832;2023-04-21T05:52:47;7.80;99.90
23114;DHT22;11726;50.122;8.832;2023-04-21T05:55:14;7.80;99.90
23114;DHT22;11726;50.122;8.832;2023-04-21T05:57:41;7.80;99.90
23114;DHT22;11726;50.122;8.832;2023-04-21T06:00:08;7.80;99.90
23114;DHT22;11726;50.122;8.832;2023-04-21T06:02:36;7.90;99.90
23114;DHT22;11726;50.122;8.832;2023-04-21T06:05:03;7.90;99.90
23114;DHT22;11726;50.122;8.832;2023-04-21T06:07:30;7.90;99.90
23114;DHT22;11726;50.122;8.832;2023-04-21T06:10:29;7.90;99.90
23114;DHT22;11726;50.122;8.832;2023-04-21T06:12:59;8.00;99.90
23114;DHT22;11726;50.122;8.832;2023-04-21T06:15:26;8.00;99.90
23114;DHT22;11726;50.122;8.832;2023-04-21T06:17:53;8.00;99.90
23114;DHT22;11726;50.122;8.832;2023-04-21T06:20:22;8.00;99.90
23114;DHT22;11726;50.122;8.832;2023-04-21T06:22:49;8.00;99.90
23114;DHT22;11726;50.122;8.832;2023-04-21T06:25:16;8.10;99.90
23114;DHT22;11726;50.122;8.832;2023-04-21T06:27:43;8.20;99.90
23114;DHT22;11726;50.122;8.832;2023-04-21T06:30:11;8.30;99.90
23114;DHT22;11726;50.122;8.832;2023-04-21T06:32:38;8.30;99.90
23114;DHT22;11726;50.122;8.832;2023-04-21T06:35:05;8.40;99.90
23114;DHT22;11726;50.122;8.832;2023-04-21T06:37:32;8.50;99.90
23114;DHT22;11726;50.122;8.832;2023-04-21T06:39:59;8.60;99.90
23114;DHT22;11726;50.122;8.832;2023-04-21T06:42:26;8.70;99.90
23114;DHT22;11726;50.122;8.832;2023-04-21T06:44:52;8.80;99.90
23114;DHT22;11726;50.122;8.832;2023-04-21T06:47:19;8.80;99.90
23114;DHT22;11726;50.122;8.832;2023-04-21T06:49:46;8.80;99.90
23114;DHT22;11726;50.122;8.832;2023-04-21T06:52:12;8.90;99.90
23114;DHT22;11726;50.122;8.832;2023-04-21T06:54:39;9.00;99.90
23114;DHT22;11726;50.122;8.832;2023-04-21T06:57:06;9.10;99.90
23114;DHT22;11726;50.122;8.832;2023-04-21T06:59:33;9.20;99.90
23114;DHT22;11726;50.122;8.832;2023-04-21T07:02:00;9.30;99.90
23114;DHT22;11726;50.122;8.832;2023-04-21T07:04:27;9.20;99.90
23114;DHT22;11726;50.122;8.832;2023-04-21T07:06:57;9.20;99.90
23114;DHT22;11726;50.122;8.832;2023-04-21T07:09:28;9.30;99.90
23114;DHT22;11726;50.122;8.832;2023-04-21T07:11:54;9.50;99.90
23114;DHT22;11726;50.122;8.832;2023-04-21T07:14:21;9.70;99.90
23114;DHT22;11726;50.122;8.832;2023-04-21T07:16:48;9.80;99.90
23114;DHT22;11726;50.122;8.832;2023-04-21T07:19:14;9.90;99.90
23114;DHT22;11726;50.122;8.832;2023-04-21T07:21:41;10.00;99.90
23114;DHT22;11726;50.122;8.832;2023-04-21T07:24:08;10.00;99.90
23114;DHT22;11726;50.122;8.832;2023-04-21T07:26:34;10.10;99.90
23114;DHT22;11726;50.122;8.832;2023-04-21T07:29:01;10.10;99.90
23114;DHT22;11726;50.122;8.832;2023-04-21T07:31:27;10.20;99.90
23114;DHT22;11726;50.122;8.832;2023-04-21T07:33:54;10.20;99.90
23114;DHT22;11726;50.122;8.832;2023-04-21T07:36:21;10.30;99.90
23114;DHT22;11726;50.122;8.832;2023-04-21T07:38:48;10.30;99.90
23114;DHT22;11726;50.122;8.832;2023-04-21T07:41:14;10.30;99.90
23114;DHT22;11726;50.122;8.832;2023-04-21T07:43:41;10.40;99.90
23114;DHT22;11726;50.122;8.832;2023-04-21T07:46:07;10.50;99.90
23114;DHT22;11726;50.122;8.832;2023-04-21T07:48:34;10.50;99.90
23114;DHT22;11726;50.122;8.832;2023-04-21T07:51:01;10.60;99.90
23114;DHT22;11726;50.122;8.832;2023-04-21T07:53:28;10.70;99.90
23114;DHT22;11726;50.122;8.832;2023-04-21T07:55:56;10.80;99.90
23114;DHT22;11726;50.122;8.832;2023-04-21T07:58:22;10.60;99.90
23114;DHT22;11726;50.122;8.832;2023-04-21T08:00:49;10.60;99.90
23114;DHT22;11726;50.122;8.832;2023-04-21T08:03:16;10.60;99.90
23114;DHT22;11726;50.122;8.832;2023-04-21T08:05:43;10.70;99.90
23114;DHT22;11726;50.122;8.832;2023-04-21T08:08:10;10.90;99.90
23114;DHT22;11726;50.122;8.832;2023-04-21T08:10:39;11.00;99.90
23114;DHT22;11726;50.122;8.832;2023-04-21T08:13:07;11.00;99.90
23114;DHT22;11726;50.122;8.832;2023-04-21T08:15:34;11.10;99.90
23114;DHT22;11726;50.122;8.832;2023-04-21T08:18:00;11.10;99.90
23114;DHT22;11726;50.122;8.832;2023-04-21T08:20:27;11.20;99.90
23114;DHT22;11726;50.122;8.832;2023-04-21T08:22:54;11.20;99.90
23114;DHT22;11726;50.122;8.832;2023-04-21T08:25:23;11.20;99.90
23114;DHT22;11726;50.122;8.832;2023-04-21T08:27:50;11.30;99.90
23114;DHT22;11726;50.122;8.832;2023-04-21T08:30:18;11.30;99.90
23114;DHT22;11726;50.122;8.832;2023-04-21T08:32:45;11.40;99.90
23114;DHT22;11726;50.122;8.832;2023-04-21T08:35:12;11.50;99.90
23114;DHT22;11726;50.122;8.832;2023-04-21T08:37:39;11.60;99.90
23114;DHT22;11726;50.122;8.832;2023-04-21T08:40:06;11.60;99.90
23114;DHT22;11726;50.122;8.832;2023-04-21T08:42:34;11.70;99.90
23114;DHT22;11726;50.122;8.832;2023-04-21T08:45:02;11.60;99.90
23114;DHT22;11726;50.122;8.832;2023-04-21T08:47:31;11.70;99.90
23114;DHT22;11726;50.122;8.832;2023-04-21T08:49:58;11.80;99.90
23114;DHT22;11726;50.122;8.832;2023-04-21T08:52:27;11.80;99.90
23114;DHT22;11726;50.122;8.832;2023-04-21T08:54:54;11.90;99.90
23114;DHT22;11726;50.122;8.832;2023-04-21T08:57:21;11.90;99.90
23114;DHT22;11726;50.122;8.832;2023-04-21T08:59:48;11.90;99.90
23114;DHT22;11726;50.122;8.832;2023-04-21T09:02:17;12.00;99.90
23114;DHT22;11726;50.122;8.832;2023-04-21T09:04:48;12.10;99.90
23114;DHT22;11726;50.122;8.832;2023-04-21T09:07:33;12.20;99.90
23114;DHT22;11726;50.122;8.832;2023-04-21T09:10:01;12.40;99.90
23114;DHT22;11726;50.122;8.832;2023-04-21T09:12:28;12.40;99.90
23114;DHT22;11726;50.122;8.832;2023-04-21T09:14:55;12.40;99.90
23114;DHT22;11726;50.122;8.832;2023-04-21T09:17:28;12.50;99.90
23114;DHT22;11726;50.122;8.832;2023-04-21T09:20:16;12.50;99.90
23114;DHT22;11726;50.122;8.832;2023-04-21T09:22:43;12.70;99.90
23114;DHT22;11726;50.122;8.832;2023-04-21T09:25:15;12.80;99.90
23114;DHT22;11726;50.122;8.832;2023-04-21T09:27:43;12.90;99.90
23114;DHT22;11726;50.122;8.832;2023-04-21T09:30:10;13.00;99.90
23114;DHT22;11726;50.122;8.832;2023-04-21T09:32:38;13.10;99.90
23114;DHT22;11726;50.122;8.832;2023-04-21T09:35:09;13.10;99.90
23114;DHT22;11726;50.122;8.832;2023-04-21T09:37:37;12.90;99.90
23114;DHT22;11726;50.122;8.832;2023-04-21T09:40:05;13.00;99.90
23114;DHT22;11726;50.122;8.832;2023-04-21T09:42:32;13.20;99.90
23114;DHT22;11726;50.122;8.832;2023-04-21T09:45:04;13.20;99.90
23114;DHT22;11726;50.122;8.832;2023-04-21T09:47:40;13.20;99.90
23114;DHT22;11726;50.122;8.832;2023-04-21T09:50:11;13.00;99.90
23114;DHT22;11726;50.122;8.832;2023-04-21T09:52:38;13.10;99.90
23114;DHT22;11726;50.122;8.832;2023-04-21T09:55:12;13.20;99.90
23114;DHT22;11726;50.122;8.832;2023-04-21T09:57:41;13.20;99.90
23114;DHT22;11726;50.122;8.832;2023-04-21T10:00:10;13.30;99.90
23114;DHT22;11726;50.122;8.832;2023-04-21T10:02:43;13.30;99.90
23114;DHT22;11726;50.122;8.832;2023-04-21T10:05:10;13.20;99.90
23114;DHT22;11726;50.122;8.832;2023-04-21T10:07:38;13.20;99.90
23114;DHT22;11726;50.122;8.832;2023-04-21T10:10:25;13.20;99.90
23114;DHT22;11726;50.122;8.832;2023-04-21T10:12:53;13.20;99.90
23114;DHT22;11726;50.122;8.832;2023-04-21T10:15:35;13.40;99.90
23114;DHT22;11726;50.122;8.832;2023-04-21T10:18:19;13.60;99.90
23114;DHT22;11726;50.122;8.832;2023-04-21T10:26:20;14.10;99.90
23114;DHT22;11726;50.122;8.832;2023-04-21T10:28:57;14.20;99.90
23114;DHT22;11726;50.122;8.832;2023-04-21T10:31:51;14.40;99.90
23114;DHT22;11726;50.122;8.832;2023-04-21T10:47:45;14.30;99.90
23114;DHT22;11726;50.122;8.832;2023-04-21T10:50:15;14.20;99.90
23114;DHT22;11726;50.122;8.832;2023-04-21T10:53:09;14.00;99.90
23114;DHT22;11726;50.122;8.832;2023-04-21T10:55:37;14.10;99.90
23114;DHT22;11726;50.122;8.832;2023-04-21T10:58:06;14.40;99.90
23114;DHT22;11726;50.122;8.832;2023-04-21T11:00:37;14.80;99.90
23114;DHT22;11726;50.122;8.832;2023-04-21T11:03:06;14.90;99.90
23114;DHT22;11726;50.122;8.832;2023-04-21T11:05:39;15.00;99.90
23114;DHT22;11726;50.122;8.832;2023-04-21T11:08:11;15.10;99.90
23114;DHT22;11726;50.122;8.832;2023-04-21T11:10:54;15.20;99.90
23114;DHT22;11726;50.122;8.832;2023-04-21T11:13:22;15.00;99.90
23114;DHT22;11726;50.122;8.832;2023-04-21T11:15:56;15.30;99.90
23114;DHT22;11726;50.122;8.832;2023-04-21T11:18:40;15.30;99.90
23114;DHT22;11726;50.122;8.832;2023-04-21T11:23:47;15.40;99.90
23114;DHT22;11726;50.122;8.832;2023-04-21T11:26:15;15.50;99.90
23114;DHT22;11726;50.122;8.832;2023-04-21T11:28:41;15.50;99.90
23114;DHT22;11726;50.122;8.832;2023-04-21T11:31:09;15.40;99.90
23114;DHT22;11726;50.122;8.832;2023-04-21T11:33:39;15.50;99.90
23114;DHT22;11726;50.122;8.832;2023-04-21T11:36:06;15.60;99.90
23114;DHT22;11726;50.122;8.832;2023-04-21T11:38:40;15.50;99.90
23114;DHT22;11726;50.122;8.832;2023-04-21T11:41:07;15.50;99.90
23114;DHT22;11726;50.122;8.832;2023-04-21T11:43:36;15.70;99.90
23114;DHT22;11726;50.122;8.832;2023-04-21T11:48:44;15.80;99.90
23114;DHT22;11726;50.122;8.832;2023-04-21T11:51:15;15.90;99.90
23114;DHT22;11726;50.122;8.832;2023-04-21T11:53:47;16.00;99.90
23114;DHT22;11726;50.122;8.832;2023-04-21T11:56:19;16.00;99.90
23114;DHT22;11726;50.122;8.832;2023-04-21T11:58:49;16.00;99.90
23114;DHT22;11726;50.122;8.832;2023-04-21T12:01:20;16.00;99.90
23114;DHT22;11726;50.122;8.832;2023-04-21T12:03:54;16.10;99.90
23114;DHT22;11726;50.122;8.832;2023-04-21T12:06:25;16.10;99.90
23114;DHT22;11726;50.122;8.832;2023-04-21T12:08:55;16.40;99.90
23114;DHT22;11726;50.122;8.832;2023-04-21T12:11:29;16.80;99.90
23114;DHT22;11726;50.122;8.832;2023-04-21T12:13:57;17.00;99.90
23114;DHT22;11726;50.122;8.832;2023-04-21T12:16:26;17.20;99.90
23114;DHT22;11726;50.122;8.832;2023-04-21T12:18:54;17.30;99.90
23114;DHT22;11726;50.122;8.832;2023-04-21T12:21:25;17.30;99.90
23114;DHT22;11726;50.122;8.832;2023-04-21T12:23:52;17.60;99.90
23114;DHT22;11726;50.122;8.832;2023-04-21T12:26:20;17.90;99.90
23114;DHT22;11726;50.122;8.832;2023-04-21T12:28:47;18.10;99.90
23114;DHT22;11726;50.122;8.832;2023-04-21T12:31:15;17.80;99.90
23114;DHT22;11726;50.122;8.832;2023-04-21T12:33:41;17.70;99.90
23114;DHT22;11726;50.122;8.832;2023-04-21T12:36:08;17.70;99.90
23114;DHT22;11726;50.122;8.832;2023-04-21T12:38:36;17.90;99.90
23114;DHT22;11726;50.122;8.832;2023-04-21T12:41:03;18.40;99.90
23114;DHT22;11726;50.122;8.832;2023-04-21T12:43:31;18.70;99.90
23114;DHT22;11726;50.122;8.832;2023-04-21T12:45:58;18.60;99.90
23114;DHT22;11726;50.122;8.832;2023-04-21T12:48:25;18.40;99.90
23114;DHT22;11726;50.122;8.832;2023-04-21T12:50:52;18.60;99.90
23114;DHT22;11726;50.122;8.832;2023-04-21T12:53:18;18.30;99.90
23114;DHT22;11726;50.122;8.832;2023-04-21T12:55:45;18.60;99.90
23114;DHT22;11726;50.122;8.832;2023-04-21T12:58:26;19.50;99.90
23114;DHT22;11726;50.122;8.832;2023-04-21T13:00:53;19.50;99.90
23114;DHT22;11726;50.122;8.832;2023-04-21T13:03:21;19.30;99.90
23114;DHT22;11726;50.122;8.832;2023-04-21T13:05:48;19.30;99.90
23114;DHT22;11726;50.122;8.832;2023-04-21T13:08:15;19.70;99.90
23114;DHT22;11726;50.122;8.832;2023-04-21T13:10:41;20.10;99.90
23114;DHT22;11726;50.122;8.832;2023-04-21T13:13:08;20.20;99.90
23114;DHT22;11726;50.122;8.832;2023-04-21T13:15:35;20.40;99.90
23114;DHT22;11726;50.122;8.832;2023-04-21T13:18:02;20.40;99.90
23114;DHT22;11726;50.122;8.832;2023-04-21T13:20:29;20.60;99.90
23114;DHT22;11726;50.122;8.832;2023-04-21T13:22:55;20.80;99.90
23114;DHT22;11726;50.122;8.832;2023-04-21T13:25:22;20.70;99.90
23114;DHT22;11726;50.122;8.832;2023-04-21T13:27:49;20.90;99.90
23114;DHT22;11726;50.122;8.832;2023-04-21T13:30:18;20.90;99.90
23114;DHT22;11726;50.122;8.832;2023-04-21T13:32:45;20.00;99.90
23114;DHT22;11726;50.122;8.832;2023-04-21T13:35:12;18.90;99.90
23114;DHT22;11726;50.122;8.832;2023-04-21T13:37:40;19.00;99.90
23114;DHT22;11726;50.122;8.832;2023-04-21T13:40:08;19.00;99.90
23114;DHT22;11726;50.122;8.832;2023-04-21T13:42:36;19.00;99.90
23114;DHT22;11726;50.122;8.832;2023-04-21T13:45:03;19.20;99.90
23114;DHT22;11726;50.122;8.832;2023-04-21T13:47:32;19.20;99.90
23114;DHT22;11726;50.122;8.832;2023-04-21T13:49:59;19.20;99.90
23114;DHT22;11726;50.122;8.832;2023-04-21T13:52:26;19.20;99.90
23114;DHT22;11726;50.122;8.832;2023-04-21T13:54:53;19.30;99.90
23114;DHT22;11726;50.122;8.832;2023-04-21T13:57:20;20.00;99.90
23114;DHT22;11726;50.122;8.832;2023-04-21T13:59:47;20.00;99.90
23114;DHT22;11726;50.122;8.832;2023-04-21T14:02:13;20.00;99.90
23114;DHT22;11726;50.122;8.832;2023-04-21T14:04:40;20.30;99.90
23114;DHT22;11726;50.122;8.832;2023-04-21T14:07:08;20.90;99.90
23114;DHT22;11726;50.122;8.832;2023-04-21T14:09:34;20.40;99.90
23114;DHT22;11726;50.122;8.832;2023-04-21T14:12:02;20.40;99.90
23114;DHT22;11726;50.122;8.832;2023-04-21T14:14:29;21.40;99.90
23114;DHT22;11726;50.122;8.832;2023-04-21T14:17:05;21.50;98.00
23114;DHT22;11726;50.122;8.832;2023-04-21T14:19:33;20.60;98.30
23114;DHT22;11726;50.122;8.832;2023-04-21T14:22:00;20.90;98.30
23114;DHT22;11726;50.122;8.832;2023-04-21T14:24:27;21.60;98.10
23114;DHT22;11726;50.122;8.832;2023-04-21T14:26:56;21.00;97.90
23114;DHT22;11726;50.122;8.832;2023-04-21T14:29:24;21.00;98.70
23114;DHT22;11726;50.122;8.832;2023-04-21T14:31:51;21.70;97.40
23114;DHT22;11726;50.122;8.832;2023-04-21T14:34:23;21.50;97.50
23114;DHT22;11726;50.122;8.832;2023-04-21T14:36:51;21.10;98.50
23114;DHT22;11726;50.122;8.832;2023-04-21T14:39:19;21.70;96.20
23114;DHT22;11726;50.122;8.832;2023-04-21T14:41:45;21.50;96.20
23114;DHT22;11726;50.122;8.832;2023-04-21T14:44:12;21.20;97.30
23114;DHT22;11726;50.122;8.832;2023-04-21T14:46:38;21.20;98.60
23114;DHT22;11726;50.122;8.832;2023-04-21T14:49:05;21.90;97.70
23114;DHT22;11726;50.122;8.832;2023-04-21T14:51:32;22.60;95.70
23114;DHT22;11726;50.122;8.832;2023-04-21T14:54:01;23.00;93.90
23114;DHT22;11726;50.122;8.832;2023-04-21T14:56:28;23.20;93.20
23114;DHT22;11726;50.122;8.832;2023-04-21T14:58:54;23.40;93.20
23114;DHT22;11726;50.122;8.832;2023-04-21T15:01:21;23.70;92.40
23114;DHT22;11726;50.122;8.832;2023-04-21T15:03:51;23.70;91.90
23114;DHT22;11726;50.122;8.832;2023-04-21T15:06:18;23.60;91.70
23114;DHT22;11726;50.122;8.832;2023-04-21T15:08:46;23.90;91.70
23114;DHT22;11726;50.122;8.832;2023-04-21T15:11:13;24.10;90.50
23114;DHT22;11726;50.122;8.832;2023-04-21T15:13:40;24.10;89.60
23114;DHT22;11726;50.122;8.832;2023-04-21T15:16:07;23.90;90.40
23114;DHT22;11726;50.122;8.832;2023-04-21T15:18:33;24.00;90.00
23114;DHT22;11726;50.122;8.832;2023-04-21T15:21:00;24.10;90.00
23114;DHT22;11726;50.122;8.832;2023-04-21T15:23:31;24.10;89.10
23114;DHT22;11726;50.122;8.832;2023-04-21T15:25:59;24.20;86.60
23114;DHT22;11726;50.122;8.832;2023-04-21T15:28:25;24.20;89.00
23114;DHT22;11726;50.122;8.832;2023-04-21T15:30:52;24.30;86.80
23114;DHT22;11726;50.122;8.832;2023-04-21T15:33:19;24.30;89.70
23114;DHT22;11726;50.122;8.832;2023-04-21T15:35:45;24.00;87.60
23114;DHT22;11726;50.122;8.832;2023-04-21T15:38:13;24.40;87.80
23114;DHT22;11726;50.122;8.832;2023-04-21T15:40:40;24.10;88.30
23114;DHT22;11726;50.122;8.832;2023-04-21T15:43:25;24.40;85.40
23114;DHT22;11726;50.122;8.832;2023-04-21T15:45:52;24.50;87.50
23114;DHT22;11726;50.122;8.832;2023-04-21T15:48:19;24.40;86.10
23114;DHT22;11726;50.122;8.832;2023-04-21T15:50:47;24.30;86.20
23114;DHT22;11726;50.122;8.832;2023-04-21T15:53:14;24.40;84.30
23114;DHT22;11726;50.122;8.832;2023-04-21T15:55:44;24.40;84.30
23114;DHT22;11726;50.122;8.832;2023-04-21T15:58:11;24.00;84.90
23114;DHT22;11726;50.122;8.832;2023-04-21T16:00:39;24.10;85.20
23114;DHT22;11726;50.122;8.832;2023-04-21T16:03:09;24.00;86.40
23114;DHT22;11726;50.122;8.832;2023-04-21T16:05:36;23.90;86.30
23114;DHT22;11726;50.122;8.832;2023-04-21T16:08:03;23.70;87.90
23114;DHT22;11726;50.122;8.832;2023-04-21T16:10:30;23.50;87.10
23114;DHT22;11726;50.122;8.832;2023-04-21T16:12:56;23.10;87.80